createdAt,value
2022-11-20T00:01:18.384Z,85.53
2022-11-20T00:03:45.634Z,85.46
2022-11-20T00:06:14.672Z,85.69
2022-11-20T00:08:41.881Z,85.48
2022-11-20T00:11:15.459Z,85.25
2022-11-20T00:13:43.133Z,85.82
2022-11-20T00:16:11.900Z,85.90
2022-11-20T00:18:38.414Z,85.87
2022-11-20T00:21:07.223Z,86.19
2022-11-20T00:23:34.258Z,85.73
2022-11-20T00:26:07.807Z,85.97
2022-11-20T00:28:34.384Z,86.15
2022-11-20T00:31:02.962Z,86.15
2022-11-20T00:33:30.003Z,85.49
2022-11-20T00:36:07.748Z,85.36
2022-11-20T00:38:35.009Z,86.07
2022-11-20T00:41:05.663Z,85.88
2022-11-20T00:43:32.112Z,86.16
2022-11-20T00:45:59.338Z,86.35
2022-11-20T00:48:26.434Z,86.00
2022-11-20T00:50:53.820Z,86.19
2022-11-20T00:53:20.820Z,86.05
2022-11-20T00:56:02.707Z,86.55
2022-11-20T00:58:37.419Z,86.84
2022-11-20T01:01:25.624Z,86.98
2022-11-20T01:03:54.256Z,86.55
2022-11-20T01:06:23.519Z,86.43
2022-11-20T01:08:53.266Z,86.80
2022-11-20T01:11:22.753Z,87.06
2022-11-20T01:13:50.807Z,87.04
2022-11-20T01:16:32.559Z,86.75
2022-11-20T01:19:01.223Z,86.58
2022-11-20T01:21:33.551Z,86.58
2022-11-20T01:24:01.028Z,86.44
2022-11-20T01:26:31.107Z,86.81
2022-11-20T01:28:58.328Z,86.92
2022-11-20T01:31:31.238Z,86.68
2022-11-20T01:34:00.465Z,86.79
2022-11-20T01:36:29.169Z,86.34
2022-11-20T01:38:58.457Z,86.70
2022-11-20T01:41:44.838Z,86.42
2022-11-20T01:44:15.909Z,87.28
2022-11-20T01:47:04.646Z,87.31
2022-11-20T01:49:47.604Z,87.20
2022-11-20T01:52:23.998Z,87.60
2022-11-20T01:55:15.644Z,87.53
2022-11-20T01:57:42.724Z,87.00
2022-11-20T02:00:14.941Z,86.95
2022-11-20T02:02:49.032Z,87.09
2022-11-20T02:05:29.396Z,87.17
2022-11-20T02:07:58.473Z,87.44
2022-11-20T02:10:25.803Z,86.95
2022-11-20T02:13:11.322Z,87.47
2022-11-20T02:15:38.239Z,87.36
2022-11-20T02:18:06.545Z,87.37
2022-11-20T02:20:33.486Z,87.24
2022-11-20T02:23:13.128Z,87.68
2022-11-20T02:25:42.040Z,87.24
2022-11-20T02:28:08.593Z,87.44
2022-11-20T02:30:35.055Z,87.45
2022-11-20T02:33:01.536Z,87.88
2022-11-20T02:35:27.944Z,87.29
2022-11-20T02:37:56.849Z,87.27
2022-11-20T02:40:24.076Z,87.26
2022-11-20T02:42:54.580Z,87.58
2022-11-20T02:45:21.380Z,87.43
2022-11-20T02:47:47.851Z,87.28
2022-11-20T02:50:14.382Z,88.01
2022-11-20T02:52:40.880Z,87.73
2022-11-20T02:55:07.766Z,87.82
2022-11-20T02:57:34.611Z,88.19
2022-11-20T03:00:01.323Z,88.25
2022-11-20T03:02:31.455Z,88.19
2022-11-20T03:04:58.129Z,88.29
2022-11-20T03:07:25.086Z,88.23
2022-11-20T03:09:52.176Z,87.75
2022-11-20T03:12:19.099Z,87.97
2022-11-20T03:14:50.175Z,88.18
2022-11-20T03:17:19.267Z,88.16
2022-11-20T03:19:45.751Z,87.91
2022-11-20T03:22:12.256Z,87.90
2022-11-20T03:24:38.734Z,87.90
2022-11-20T03:27:05.199Z,87.40
2022-11-20T03:29:31.680Z,87.87
2022-11-20T03:31:58.218Z,87.17
2022-11-20T03:34:25.035Z,87.62
2022-11-20T03:36:51.554Z,87.47
2022-11-20T03:39:18.194Z,87.34
2022-11-20T03:41:44.804Z,87.12
2022-11-20T03:44:12.545Z,87.54
2022-11-20T03:46:39.485Z,87.31
2022-11-20T03:49:06.553Z,87.10
2022-11-20T03:51:35.145Z,87.09
2022-11-20T03:54:07.847Z,86.95
2022-11-20T03:56:36.988Z,87.18
2022-11-20T03:59:03.967Z,87.28
2022-11-20T04:01:33.829Z,87.18
2022-11-20T04:04:00.444Z,86.90
2022-11-20T04:06:29.468Z,87.34
2022-11-20T04:08:57.027Z,87.35
2022-11-20T04:11:32.059Z,87.07
2022-11-20T04:14:04.047Z,87.16
2022-11-20T04:16:32.201Z,86.89
2022-11-20T04:19:01.270Z,86.73
2022-11-20T04:21:28.113Z,86.55
2022-11-20T04:23:55.171Z,86.90
2022-11-20T04:26:24.226Z,86.77
2022-11-20T04:28:50.932Z,86.97
2022-11-20T04:31:19.764Z,87.12
2022-11-20T04:33:46.608Z,86.81
2022-11-20T04:36:16.401Z,86.93
2022-11-20T04:38:43.784Z,86.64
2022-11-20T04:41:18.949Z,86.68
2022-11-20T04:43:50.561Z,87.01
2022-11-20T04:46:18.506Z,86.91
2022-11-20T04:48:45.521Z,87.18
2022-11-20T04:51:12.732Z,86.53
2022-11-20T04:53:42.948Z,86.23
2022-11-20T04:56:11.548Z,86.01
2022-11-20T04:58:39.474Z,85.33
2022-11-20T05:01:15.016Z,85.19
2022-11-20T05:03:42.930Z,85.73
2022-11-20T05:06:11.808Z,85.84
2022-11-20T05:08:38.424Z,85.71
2022-11-20T05:11:10.120Z,85.91
2022-11-20T05:13:37.078Z,86.74
2022-11-20T05:16:13.333Z,85.96
2022-11-20T05:18:41.270Z,85.90
2022-11-20T05:21:09.250Z,86.09
2022-11-20T05:23:36.756Z,85.70
2022-11-20T05:26:04.062Z,85.22
2022-11-20T05:28:31.546Z,85.00
2022-11-20T05:31:05.819Z,85.83
2022-11-20T05:33:32.588Z,84.94
2022-11-20T05:35:59.517Z,84.35
2022-11-20T05:38:25.991Z,84.76
2022-11-20T05:40:52.763Z,85.29
2022-11-20T05:43:19.400Z,85.50
2022-11-20T05:45:55.786Z,85.23
2022-11-20T05:48:22.521Z,85.15
2022-11-20T05:50:49.440Z,85.35
2022-11-20T05:53:15.906Z,85.15
2022-11-20T05:55:42.424Z,85.02
2022-11-20T05:58:08.943Z,84.59
2022-11-20T06:00:36.331Z,84.42
2022-11-20T06:03:03.657Z,84.72
2022-11-20T06:05:30.169Z,84.37
2022-11-20T06:07:56.914Z,85.36
2022-11-20T06:10:23.366Z,85.52
2022-11-20T06:12:49.815Z,85.39
2022-11-20T06:15:16.319Z,84.54
2022-11-20T06:17:42.783Z,84.55
2022-11-20T06:20:09.933Z,85.06
2022-11-20T06:22:36.459Z,85.49
2022-11-20T06:25:02.981Z,85.05
2022-11-20T06:27:29.608Z,85.08
2022-11-20T06:29:56.033Z,85.26
2022-11-20T06:32:22.777Z,84.81
2022-11-20T06:34:49.448Z,84.02
2022-11-20T06:37:15.919Z,82.75
2022-11-20T06:39:42.328Z,83.17
2022-11-20T06:42:08.776Z,82.88
2022-11-20T06:44:35.223Z,82.07
2022-11-20T06:47:02.595Z,82.18
2022-11-20T06:49:29.432Z,82.15
2022-11-20T06:51:55.971Z,81.31
2022-11-20T06:54:22.724Z,80.69
2022-11-20T06:56:49.636Z,81.96
2022-11-20T06:59:16.089Z,82.08
2022-11-20T07:01:42.653Z,82.21
2022-11-20T07:04:09.121Z,81.98
2022-11-20T07:06:35.608Z,82.33
2022-11-20T07:09:02.603Z,82.04
2022-11-20T07:11:29.267Z,82.77
2022-11-20T07:13:55.813Z,82.92
2022-11-20T07:16:22.660Z,82.90
2022-11-20T07:18:51.066Z,83.13
2022-11-20T07:21:18.160Z,82.79
2022-11-20T07:23:44.630Z,83.17
2022-11-20T07:26:12.231Z,83.04
2022-11-20T07:28:38.710Z,83.24
2022-11-20T07:31:07.575Z,82.88
2022-11-20T07:33:34.076Z,82.60
2022-11-20T07:36:01.188Z,82.80
2022-11-20T07:38:28.580Z,82.77
2022-11-20T07:40:58.810Z,82.08
2022-11-20T07:43:26.176Z,82.03
2022-11-20T07:45:52.945Z,82.08
2022-11-20T07:48:19.587Z,82.26
2022-11-20T07:50:46.650Z,82.35
2022-11-20T07:53:14.742Z,82.24
2022-11-20T07:55:41.250Z,83.07
2022-11-20T07:58:07.808Z,83.80
2022-11-20T08:00:34.408Z,83.69
2022-11-20T08:03:04.430Z,83.42
2022-11-20T08:05:31.045Z,82.87
2022-11-20T08:07:57.499Z,82.07
2022-11-20T08:10:24.284Z,81.91
2022-11-20T08:13:11.984Z,81.83
2022-11-20T08:15:39.945Z,80.64
2022-11-20T08:18:29.904Z,79.93
2022-11-20T08:20:55.601Z,80.59
2022-11-20T08:23:24.103Z,80.61
2022-11-20T08:25:52.000Z,81.09
2022-11-20T08:28:21.888Z,80.50
2022-11-20T08:30:49.233Z,80.39
2022-11-20T08:33:15.899Z,80.78
2022-11-20T08:35:43.478Z,80.59
2022-11-20T08:38:10.327Z,80.83
2022-11-20T08:40:36.816Z,80.93
2022-11-20T08:43:03.324Z,80.99
2022-11-20T08:45:34.149Z,81.29
2022-11-20T08:48:04.732Z,81.19
2022-11-20T08:50:34.993Z,80.83
2022-11-20T08:53:05.422Z,80.80
2022-11-20T08:55:32.040Z,80.73
2022-11-20T08:57:58.695Z,81.94
2022-11-20T09:00:25.435Z,81.71
2022-11-20T09:02:53.295Z,81.82
2022-11-20T09:05:19.777Z,80.98
2022-11-20T09:07:46.254Z,80.46
2022-11-20T09:10:28.396Z,79.79
2022-11-20T09:12:58.652Z,79.71
2022-11-20T09:15:26.327Z,80.18
2022-11-20T09:18:00.466Z,79.42
2022-11-20T09:20:30.137Z,78.43
2022-11-20T09:22:57.694Z,79.26
2022-11-20T09:25:24.825Z,78.93
2022-11-20T09:28:00.840Z,78.05
2022-11-20T09:30:29.013Z,77.46
2022-11-20T09:32:55.863Z,78.73
2022-11-20T09:35:22.691Z,77.69
2022-11-20T09:37:49.266Z,77.81
2022-11-20T09:40:30.368Z,77.90
2022-11-20T09:43:14.523Z,77.87
2022-11-20T09:46:06.132Z,78.64
2022-11-20T09:48:37.639Z,78.88
2022-11-20T09:51:14.682Z,78.96
2022-11-20T09:53:51.817Z,78.94
2022-11-20T09:56:22.810Z,78.56
2022-11-20T09:58:55.622Z,77.55
2022-11-20T10:01:27.243Z,77.72
2022-11-20T10:04:05.874Z,78.21
2022-11-20T10:06:33.937Z,77.92
2022-11-20T10:09:12.642Z,77.70
2022-11-20T10:11:57.671Z,77.22
2022-11-20T10:15:03.023Z,77.33
2022-11-20T10:17:41.594Z,76.70
2022-11-20T10:20:26.352Z,76.96
2022-11-20T10:23:25.744Z,76.33
2022-11-20T10:26:34.060Z,76.45
2022-11-20T10:29:14.936Z,76.12
2022-11-20T10:31:44.624Z,76.19
2022-11-20T10:34:39.853Z,75.27
2022-11-20T10:37:17.050Z,74.75
2022-11-20T10:39:55.420Z,73.45
2022-11-20T10:42:34.701Z,74.19
2022-11-20T10:45:22.471Z,74.41
2022-11-20T10:47:49.570Z,74.18
2022-11-20T10:50:22.950Z,72.66
2022-11-20T10:53:01.868Z,71.14
2022-11-20T10:55:59.638Z,71.34
2022-11-20T10:58:44.788Z,71.48
2022-11-20T11:01:23.213Z,71.34
2022-11-20T11:03:52.959Z,71.80
2022-11-20T11:06:25.729Z,71.29
2022-11-20T11:08:56.252Z,71.29
2022-11-20T11:11:24.763Z,71.72
2022-11-20T11:13:52.111Z,71.20
2022-11-20T11:16:28.361Z,71.02
2022-11-20T11:19:12.548Z,71.46
2022-11-20T11:21:44.378Z,70.51
2022-11-20T11:24:43.924Z,70.94
2022-11-20T11:27:18.027Z,71.51
2022-11-20T11:29:45.346Z,72.04
2022-11-20T11:32:23.138Z,71.74
2022-11-20T11:35:03.578Z,71.50
2022-11-20T11:37:39.479Z,72.00
2022-11-20T11:40:24.731Z,72.72
2022-11-20T11:43:00.709Z,73.07
2022-11-20T11:45:27.949Z,72.88
2022-11-20T11:47:59.017Z,72.71
2022-11-20T11:50:27.463Z,71.84
2022-11-20T11:53:16.614Z,71.47
2022-11-20T11:55:53.369Z,71.96
2022-11-20T11:58:56.412Z,72.41
2022-11-20T12:01:41.839Z,72.77
2022-11-20T12:04:17.759Z,71.94
2022-11-20T12:07:18.296Z,72.67
2022-11-20T12:09:53.431Z,73.34
2022-11-20T12:12:25.931Z,72.88
2022-11-20T12:14:55.625Z,73.45
2022-11-20T12:17:22.312Z,74.02
2022-11-20T12:19:48.896Z,72.53
2022-11-20T12:22:30.517Z,73.31
2022-11-20T12:25:14.008Z,72.94
2022-11-20T12:27:53.272Z,71.81
2022-11-20T12:30:22.171Z,72.11
2022-11-20T12:32:48.581Z,72.43
2022-11-20T12:35:36.582Z,73.14
2022-11-20T12:38:30.374Z,73.26
2022-11-20T12:40:56.865Z,73.63
2022-11-20T12:43:45.424Z,73.89
2022-11-20T12:46:12.193Z,74.87
2022-11-20T12:48:46.046Z,74.52
2022-11-20T12:51:31.217Z,74.25
2022-11-20T12:53:57.592Z,74.55
2022-11-20T12:56:45.515Z,74.40
2022-11-20T12:59:24.805Z,73.40
2022-11-20T13:02:19.616Z,72.91
2022-11-20T13:05:18.849Z,71.82
2022-11-20T13:07:46.763Z,72.58
2022-11-20T13:10:27.984Z,73.56
2022-11-20T13:13:02.592Z,73.26
2022-11-20T13:15:43.350Z,72.59
2022-11-20T13:18:12.253Z,72.60
2022-11-20T13:20:44.634Z,73.48
2022-11-20T13:23:11.477Z,73.76
2022-11-20T13:25:40.265Z,74.18
2022-11-20T13:28:09.851Z,73.80
2022-11-20T13:30:37.599Z,74.00
2022-11-20T13:33:06.852Z,74.36
2022-11-20T13:35:37.484Z,74.22
2022-11-20T13:38:10.435Z,74.25
2022-11-20T13:40:51.259Z,74.36
2022-11-20T13:43:22.364Z,74.43
2022-11-20T13:45:59.957Z,73.49
2022-11-20T13:48:42.364Z,74.36
2022-11-20T13:51:31.848Z,75.50
2022-11-20T13:54:06.536Z,75.06
2022-11-20T13:57:24.735Z,75.34
2022-11-20T13:59:54.188Z,74.94
2022-11-20T14:02:23.245Z,74.54
2022-11-20T14:04:53.742Z,75.03
2022-11-20T14:07:24.866Z,75.02
2022-11-20T14:09:56.573Z,75.18
2022-11-20T14:12:29.637Z,75.65
2022-11-20T14:14:56.533Z,75.27
2022-11-20T14:17:36.586Z,75.84
2022-11-20T14:20:07.312Z,76.04
2022-11-20T14:22:33.841Z,75.94
2022-11-20T14:25:20.041Z,76.25
2022-11-20T14:27:53.208Z,76.05
2022-11-20T14:30:23.687Z,75.96
2022-11-20T14:32:51.795Z,76.26
2022-11-20T14:35:29.994Z,76.64
2022-11-20T14:37:57.736Z,76.46
2022-11-20T14:40:24.839Z,77.02
2022-11-20T14:42:51.401Z,76.67
2022-11-20T14:45:19.221Z,76.62
2022-11-20T14:47:46.631Z,76.61
2022-11-20T14:50:25.239Z,77.18
2022-11-20T14:52:56.702Z,77.32
2022-11-20T14:55:38.201Z,77.29
2022-11-20T14:58:08.303Z,77.54
2022-11-20T15:00:36.001Z,77.82
2022-11-20T15:03:16.505Z,77.89
2022-11-20T15:05:49.759Z,78.37
2022-11-20T15:08:17.319Z,78.23
2022-11-20T15:10:51.511Z,78.60
2022-11-20T15:13:33.374Z,78.58
2022-11-20T15:16:02.558Z,78.57
2022-11-20T15:18:33.132Z,79.34
2022-11-20T15:21:04.659Z,79.38
2022-11-20T15:23:31.196Z,79.54
2022-11-20T15:25:57.785Z,79.45
2022-11-20T15:28:31.359Z,79.55
2022-11-20T15:30:58.096Z,79.19
2022-11-20T15:33:24.825Z,79.54
2022-11-20T15:35:51.431Z,79.82
2022-11-20T15:38:17.860Z,80.15
2022-11-20T15:40:44.386Z,80.23
2022-11-20T15:43:13.655Z,80.06
2022-11-20T15:45:53.880Z,80.66
2022-11-20T15:48:23.255Z,80.62
2022-11-20T15:51:08.367Z,81.13
2022-11-20T15:53:34.907Z,81.22
2022-11-20T15:56:02.633Z,80.86
2022-11-20T15:58:29.191Z,81.30
2022-11-20T16:00:56.067Z,81.65
2022-11-20T16:03:23.503Z,81.81
2022-11-20T16:05:50.133Z,81.95
2022-11-20T16:08:16.692Z,82.21
2022-11-20T16:10:43.196Z,82.48
2022-11-20T16:13:36.985Z,82.19
2022-11-20T16:16:24.103Z,81.95
2022-11-20T16:18:51.172Z,82.77
2022-11-20T16:21:18.049Z,83.11
2022-11-20T16:23:44.572Z,83.28
2022-11-20T16:26:17.663Z,84.07
2022-11-20T16:28:44.788Z,83.69
2022-11-20T16:31:37.009Z,84.51
2022-11-20T16:34:11.991Z,84.11
2022-11-20T16:36:43.376Z,84.38
2022-11-20T16:39:10.187Z,85.12
2022-11-20T16:41:37.300Z,85.23
2022-11-20T16:44:10.373Z,85.29
2022-11-20T16:46:37.818Z,85.40
2022-11-20T16:49:06.779Z,85.20
2022-11-20T16:51:36.320Z,85.30
2022-11-20T16:54:05.317Z,84.90
2022-11-20T16:56:31.921Z,85.12
2022-11-20T16:59:00.250Z,85.47
2022-11-20T17:01:29.950Z,85.81
2022-11-20T17:04:02.640Z,85.81
2022-11-20T17:06:32.173Z,85.44
2022-11-20T17:08:59.394Z,85.80
2022-11-20T17:11:27.730Z,85.45
2022-11-20T17:14:00.657Z,85.51
2022-11-20T17:16:28.136Z,85.29
2022-11-20T17:19:01.077Z,85.53
2022-11-20T17:21:32.392Z,85.68
2022-11-20T17:24:04.613Z,85.42
2022-11-20T17:26:32.023Z,85.71
2022-11-20T17:29:04.620Z,85.47
2022-11-20T17:31:33.316Z,85.50
2022-11-20T17:34:00.394Z,86.18
2022-11-20T17:36:28.430Z,85.74
2022-11-20T17:38:55.347Z,86.00
2022-11-20T17:41:23.479Z,86.42
2022-11-20T17:43:55.407Z,86.18
2022-11-20T17:46:24.951Z,86.27
2022-11-20T17:48:52.096Z,85.89
2022-11-20T17:51:22.734Z,86.02
2022-11-20T17:53:55.024Z,86.05
2022-11-20T17:56:40.575Z,86.52
2022-11-20T17:59:09.540Z,86.59
2022-11-20T18:01:36.497Z,86.83
2022-11-20T18:04:03.749Z,86.59
2022-11-20T18:06:31.217Z,86.77
2022-11-20T18:09:00.307Z,86.62
2022-11-20T18:11:30.422Z,87.42
2022-11-20T18:14:17.323Z,86.84
2022-11-20T18:16:52.205Z,86.67
2022-11-20T18:19:21.903Z,87.06
2022-11-20T18:21:48.476Z,87.42
2022-11-20T18:24:15.202Z,87.73
2022-11-20T18:26:44.488Z,88.07
2022-11-20T18:29:13.578Z,88.46
2022-11-20T18:31:41.050Z,87.82
2022-11-20T18:34:11.548Z,88.14
2022-11-20T18:36:38.820Z,87.99
2022-11-20T18:39:05.359Z,88.46
2022-11-20T18:41:50.528Z,88.31
2022-11-20T18:44:38.813Z,88.27
2022-11-20T18:47:13.953Z,88.54
2022-11-20T18:49:40.865Z,88.52
2022-11-20T18:52:08.376Z,88.40
2022-11-20T18:54:36.649Z,88.81
2022-11-20T18:57:04.112Z,88.16
2022-11-20T18:59:31.273Z,88.92
2022-11-20T19:01:58.209Z,89.26
2022-11-20T19:04:25.451Z,89.27
2022-11-20T19:06:56.102Z,88.60
2022-11-20T19:09:24.279Z,88.30
2022-11-20T19:11:52.094Z,88.36
2022-11-20T19:14:18.757Z,88.54
2022-11-20T19:16:45.388Z,88.93
2022-11-20T19:19:12.518Z,89.20
2022-11-20T19:21:39.100Z,88.82
2022-11-20T19:24:05.700Z,89.23
2022-11-20T19:26:34.953Z,88.94
2022-11-20T19:29:05.067Z,89.31
2022-11-20T19:31:32.011Z,89.80
2022-11-20T19:34:01.137Z,89.35
2022-11-20T19:36:44.383Z,89.85
2022-11-20T19:39:11.794Z,89.63
2022-11-20T19:41:40.163Z,89.88
2022-11-20T19:44:15.198Z,88.39
2022-11-20T19:46:42.008Z,87.72
2022-11-20T19:49:11.177Z,88.00
2022-11-20T19:51:43.411Z,88.04
2022-11-20T19:54:09.999Z,87.96
2022-11-20T19:56:36.687Z,86.97
2022-11-20T19:59:03.231Z,87.25
2022-11-20T20:01:31.651Z,87.63
2022-11-20T20:04:05.254Z,87.44
2022-11-20T20:06:34.092Z,87.46
2022-11-20T20:09:04.210Z,87.19
2022-11-20T20:11:32.843Z,87.09
2022-11-20T20:14:03.758Z,86.79
2022-11-20T20:16:30.644Z,86.42
2022-11-20T20:19:02.669Z,86.15
2022-11-20T20:21:31.905Z,86.30
2022-11-20T20:23:59.531Z,86.77
2022-11-20T20:26:28.709Z,86.69
2022-11-20T20:28:55.720Z,86.53
2022-11-20T20:31:25.286Z,86.61
2022-11-20T20:33:51.884Z,86.30
2022-11-20T20:36:20.041Z,85.60
2022-11-20T20:38:47.262Z,84.39
2022-11-20T20:41:14.770Z,84.84
2022-11-20T20:43:59.872Z,85.08
2022-11-20T20:46:26.375Z,85.01
2022-11-20T20:48:54.840Z,85.02
2022-11-20T20:51:22.765Z,85.15
2022-11-20T20:53:50.181Z,85.16
2022-11-20T20:56:17.531Z,84.94
2022-11-20T20:58:44.390Z,84.66
2022-11-20T21:01:15.744Z,84.13
2022-11-20T21:03:42.799Z,84.70
2022-11-20T21:06:10.838Z,83.84
2022-11-20T21:08:40.748Z,84.57
2022-11-20T21:11:10.597Z,83.67
2022-11-20T21:13:38.070Z,82.58
2022-11-20T21:16:04.843Z,83.26
2022-11-20T21:18:32.073Z,83.86
2022-11-20T21:21:17.354Z,83.64
2022-11-20T21:23:47.780Z,83.40
2022-11-20T21:26:16.043Z,83.27
2022-11-20T21:28:43.141Z,83.95
2022-11-20T21:31:15.327Z,83.10
2022-11-20T21:33:43.979Z,83.04
2022-11-20T21:36:13.034Z,83.51
2022-11-20T21:38:39.560Z,83.84
2022-11-20T21:41:08.376Z,82.27
2022-11-20T21:43:35.605Z,82.83
2022-11-20T21:46:09.804Z,83.27
2022-11-20T21:48:37.983Z,83.21
2022-11-20T21:51:09.534Z,82.63
2022-11-20T21:53:36.470Z,82.60
2022-11-20T21:56:04.326Z,82.82
2022-11-20T21:58:31.251Z,82.84
2022-11-20T22:00:57.979Z,83.61
2022-11-20T22:03:25.130Z,83.80
2022-11-20T22:05:56.593Z,84.17
2022-11-20T22:08:26.801Z,84.46
2022-11-20T22:11:12.294Z,84.36
2022-11-20T22:13:58.132Z,84.17
2022-11-20T22:16:25.292Z,84.25
2022-11-20T22:18:54.095Z,84.56
2022-11-20T22:21:24.021Z,84.53
2022-11-20T22:23:51.033Z,84.69
2022-11-20T22:26:19.743Z,85.34
2022-11-20T22:28:50.637Z,84.99
2022-11-20T22:31:18.629Z,84.91
2022-11-20T22:33:45.470Z,85.19
2022-11-20T22:36:14.190Z,84.53
2022-11-20T22:38:40.781Z,84.84
2022-11-20T22:41:28.225Z,84.86
2022-11-20T22:43:56.621Z,85.31
2022-11-20T22:46:24.396Z,85.05
2022-11-20T22:48:52.136Z,85.03
2022-11-20T22:51:20.704Z,85.35
2022-11-20T22:53:47.677Z,84.84
2022-11-20T22:56:15.269Z,84.82
2022-11-20T22:58:44.414Z,84.68
2022-11-20T23:01:15.285Z,84.27
2022-11-20T23:03:46.437Z,84.22
2022-11-20T23:06:13.547Z,84.82
2022-11-20T23:08:41.570Z,84.83
2022-11-20T23:11:11.817Z,84.90
2022-11-20T23:13:38.815Z,85.93
2022-11-20T23:16:11.594Z,85.31
2022-11-20T23:18:38.266Z,85.80
2022-11-20T23:21:06.555Z,85.71
2022-11-20T23:23:33.603Z,85.64
2022-11-20T23:26:08.891Z,86.04
2022-11-20T23:28:35.596Z,85.78
2022-11-20T23:31:02.650Z,85.97
2022-11-20T23:33:29.956Z,86.61
2022-11-20T23:35:56.608Z,86.95
2022-11-20T23:38:23.317Z,86.86
2022-11-20T23:40:51.585Z,87.13
2022-11-20T23:43:20.463Z,86.99
2022-11-20T23:45:52.211Z,86.71
2022-11-20T23:48:19.852Z,87.00
2022-11-20T23:50:46.641Z,86.66
2022-11-20T23:53:14.460Z,86.77
2022-11-20T23:55:46.163Z,86.37
2022-11-20T23:58:13.568Z,85.54
